createdAt,value
2023-05-03T00:02:18.105Z,3.58
2023-05-03T00:04:49.293Z,3.88
2023-05-03T00:07:19.501Z,3.92
2023-05-03T00:09:52.931Z,3.55
2023-05-03T00:12:23.222Z,3.75
2023-05-03T00:14:53.644Z,4.03
2023-05-03T00:17:23.943Z,4.05
2023-05-03T00:19:55.863Z,4.38
2023-05-03T00:22:27.330Z,3.65
2023-05-03T00:25:01.283Z,3.40
2023-05-03T00:27:31.767Z,3.53
2023-05-03T00:30:06.739Z,3.50
2023-05-03T00:32:38.080Z,3.20
2023-05-03T00:35:09.811Z,3.58
2023-05-03T00:37:40.577Z,3.80
2023-05-03T00:40:17.641Z,3.40
2023-05-03T00:42:47.913Z,3.72
2023-05-03T00:45:18.149Z,3.42
2023-05-03T00:47:48.507Z,4.97
2023-05-03T00:50:21.551Z,3.70
2023-05-03T00:52:51.821Z,3.83
2023-05-03T00:55:26.474Z,3.58
2023-05-03T00:57:57.836Z,3.55
2023-05-03T01:00:30.193Z,4.38
2023-05-03T01:03:00.558Z,3.85
2023-05-03T01:05:38.567Z,3.80
2023-05-03T01:08:14.496Z,3.55
2023-05-03T01:10:51.779Z,4.05
2023-05-03T01:13:27.955Z,3.38
2023-05-03T01:16:08.422Z,3.20
2023-05-03T01:18:44.443Z,3.88
2023-05-03T01:21:26.729Z,3.65
2023-05-03T01:24:02.805Z,3.35
2023-05-03T01:26:37.506Z,3.60
2023-05-03T01:29:08.643Z,3.95
2023-05-03T01:31:47.195Z,4.47
2023-05-03T01:34:27.849Z,3.65
2023-05-03T01:37:03.484Z,3.95
2023-05-03T01:39:41.358Z,4.13
2023-05-03T01:42:15.374Z,3.97
2023-05-03T01:44:46.824Z,4.25
2023-05-03T01:47:17.936Z,4.30
2023-05-03T01:49:48.355Z,4.10
2023-05-03T01:52:18.750Z,4.50
2023-05-03T01:54:49.162Z,4.15
2023-05-03T01:57:21.998Z,3.88
2023-05-03T01:59:52.335Z,4.57
2023-05-03T02:02:22.797Z,3.92
2023-05-03T02:04:53.278Z,3.10
2023-05-03T02:07:23.647Z,4.20
2023-05-03T02:09:54.703Z,3.92
2023-05-03T02:12:27.670Z,4.10
2023-05-03T02:14:58.494Z,3.78
2023-05-03T02:17:29.146Z,3.70
2023-05-03T02:19:59.970Z,3.72
2023-05-03T02:22:31.678Z,3.60
2023-05-03T02:25:05.223Z,3.78
2023-05-03T02:27:38.168Z,4.00
2023-05-03T02:30:10.185Z,4.20
2023-05-03T02:32:43.592Z,4.28
2023-05-03T02:35:14.161Z,4.25
2023-05-03T02:37:44.379Z,4.65
2023-05-03T02:40:15.546Z,3.30
2023-05-03T02:42:51.462Z,3.60
2023-05-03T02:45:24.251Z,3.65
2023-05-03T02:47:54.589Z,4.00
2023-05-03T02:50:24.866Z,4.18
2023-05-03T02:52:55.142Z,3.42
2023-05-03T02:55:26.061Z,3.88
2023-05-03T02:57:59.197Z,3.75
2023-05-03T03:00:29.660Z,3.70
2023-05-03T03:03:00.170Z,4.25
2023-05-03T03:05:30.538Z,4.45
2023-05-03T03:08:00.826Z,4.97
2023-05-03T03:10:31.288Z,4.30
2023-05-03T03:13:04.903Z,4.20
2023-05-03T03:15:35.093Z,4.15
2023-05-03T03:18:05.475Z,3.70
2023-05-03T03:20:35.851Z,4.43
2023-05-03T03:23:06.271Z,3.42
2023-05-03T03:25:36.581Z,4.07
2023-05-03T03:28:09.661Z,3.85
2023-05-03T03:30:39.952Z,4.22
2023-05-03T03:33:10.469Z,4.70
2023-05-03T03:35:40.930Z,3.67
2023-05-03T03:38:11.266Z,4.55
2023-05-03T03:40:44.284Z,4.00
2023-05-03T03:43:19.550Z,4.13
2023-05-03T03:45:50.070Z,3.88
2023-05-03T03:48:20.413Z,4.15
2023-05-03T03:50:50.820Z,3.47
2023-05-03T03:53:21.253Z,3.88
2023-05-03T03:55:51.484Z,3.95
2023-05-03T03:58:24.380Z,3.90
2023-05-03T04:00:54.912Z,4.27
2023-05-03T04:03:25.309Z,3.92
2023-05-03T04:05:55.655Z,3.95
2023-05-03T04:08:25.896Z,3.95
2023-05-03T04:10:56.304Z,4.05
2023-05-03T04:13:29.347Z,3.78
2023-05-03T04:16:02.586Z,3.90
2023-05-03T04:18:34.231Z,4.13
2023-05-03T04:21:08.423Z,3.95
2023-05-03T04:23:39.033Z,4.10
2023-05-03T04:26:20.192Z,3.80
2023-05-03T04:29:04.059Z,3.75
2023-05-03T04:31:34.286Z,4.47
2023-05-03T04:34:04.530Z,4.28
2023-05-03T04:36:35.616Z,4.07
2023-05-03T04:39:06.821Z,4.45
2023-05-03T04:41:37.444Z,4.32
2023-05-03T04:44:11.409Z,4.38
2023-05-03T04:46:42.189Z,4.18
2023-05-03T04:49:12.567Z,4.57
2023-05-03T04:51:42.861Z,4.20
2023-05-03T04:54:13.290Z,4.10
2023-05-03T04:56:43.624Z,3.92
2023-05-03T04:59:16.578Z,4.63
2023-05-03T05:01:48.137Z,4.72
2023-05-03T05:04:18.480Z,3.60
2023-05-03T05:06:48.894Z,4.25
2023-05-03T05:09:29.389Z,4.18
2023-05-03T05:12:00.532Z,4.47
2023-05-03T05:14:34.337Z,4.13
2023-05-03T05:17:04.787Z,4.53
2023-05-03T05:19:37.123Z,4.03
2023-05-03T05:22:08.207Z,3.92
2023-05-03T05:24:38.865Z,3.65
2023-05-03T05:27:09.445Z,3.88
2023-05-03T05:29:42.358Z,4.30
2023-05-03T05:32:13.182Z,3.63
2023-05-03T05:34:45.510Z,3.67
2023-05-03T05:37:16.658Z,3.90
2023-05-03T05:39:46.988Z,4.10
2023-05-03T05:42:18.361Z,3.47
2023-05-03T05:44:52.662Z,3.70
2023-05-03T05:47:22.939Z,3.72
2023-05-03T05:49:53.492Z,2.33
2023-05-03T05:52:23.790Z,2.40
2023-05-03T05:54:54.121Z,2.42
2023-05-03T05:57:26.772Z,2.53
2023-05-03T05:59:59.684Z,2.53
2023-05-03T06:02:30.167Z,3.10
2023-05-03T06:05:01.077Z,2.40
2023-05-03T06:07:31.401Z,2.65
2023-05-03T06:10:02.979Z,2.55
2023-05-03T06:12:33.790Z,2.55
2023-05-03T06:15:07.393Z,3.00
2023-05-03T06:17:37.790Z,2.95
2023-05-03T06:20:12.134Z,2.80
2023-05-03T06:22:42.653Z,2.90
2023-05-03T06:25:16.264Z,2.63
2023-05-03T06:27:48.755Z,2.65
2023-05-03T06:30:23.871Z,2.47
2023-05-03T06:32:54.262Z,2.63
2023-05-03T06:35:24.767Z,3.00
2023-05-03T06:37:55.234Z,2.75
2023-05-03T06:40:27.812Z,2.90
2023-05-03T06:42:58.168Z,2.33
2023-05-03T06:45:34.488Z,1.80
2023-05-03T06:48:05.407Z,2.40
2023-05-03T06:50:35.976Z,2.50
2023-05-03T06:53:06.595Z,2.38
2023-05-03T06:55:36.882Z,2.08
2023-05-03T06:58:10.340Z,2.60
2023-05-03T07:00:43.335Z,2.50
2023-05-03T07:03:17.628Z,2.77
2023-05-03T07:05:48.116Z,2.42
2023-05-03T07:08:18.365Z,2.50
2023-05-03T07:10:48.917Z,2.05
2023-05-03T07:13:19.262Z,2.22
2023-05-03T07:15:52.578Z,2.05
2023-05-03T07:20:53.370Z,2.50
2023-05-03T07:23:23.641Z,2.03
2023-05-03T07:25:55.354Z,2.45
2023-05-03T07:28:26.187Z,2.42
2023-05-03T07:30:59.754Z,2.25
2023-05-03T07:36:00.361Z,2.15
2023-05-03T07:38:31.088Z,2.10
2023-05-03T07:41:01.386Z,1.95
2023-05-03T07:43:31.625Z,2.50
2023-05-03T07:46:04.653Z,2.50
2023-05-03T07:48:35.446Z,2.42
2023-05-03T07:51:08.753Z,2.30
2023-05-03T07:53:40.615Z,2.17
2023-05-03T07:56:11.294Z,2.05
2023-05-03T07:58:42.626Z,2.08
2023-05-03T08:01:16.653Z,2.38
2023-05-03T08:03:47.333Z,2.35
2023-05-03T08:06:18.296Z,2.50
2023-05-03T08:08:48.844Z,2.10
2023-05-03T08:11:19.417Z,1.92
2023-05-03T08:13:50.914Z,2.33
2023-05-03T08:16:27.235Z,2.20
2023-05-03T08:18:58.274Z,2.30
2023-05-03T08:21:31.693Z,1.80
2023-05-03T08:24:02.321Z,2.35
2023-05-03T08:26:33.531Z,2.08
2023-05-03T08:29:03.950Z,2.28
2023-05-03T08:31:37.025Z,2.40
2023-05-03T08:34:08.268Z,1.63
2023-05-03T08:36:38.578Z,4.50
2023-05-03T08:39:10.517Z,3.63
2023-05-03T08:41:43.033Z,2.50
2023-05-03T08:44:15.660Z,2.42
2023-05-03T08:46:49.228Z,2.72
2023-05-03T08:49:21.708Z,2.72
2023-05-03T08:51:53.410Z,2.92
2023-05-03T08:54:24.713Z,2.72
2023-05-03T08:56:55.674Z,4.93
2023-05-03T08:59:27.708Z,2.80
2023-05-03T09:02:00.691Z,2.83
2023-05-03T09:04:39.370Z,2.63
2023-05-03T09:07:16.084Z,2.60
2023-05-03T09:09:47.396Z,2.55
2023-05-03T09:12:37.094Z,2.53
2023-05-03T09:15:09.372Z,3.80
2023-05-03T09:17:42.584Z,3.00
2023-05-03T09:20:15.658Z,2.70
2023-05-03T09:22:54.806Z,2.45
2023-05-03T09:25:25.888Z,3.03
2023-05-03T09:28:04.401Z,2.70
2023-05-03T09:30:35.781Z,2.97
2023-05-03T09:33:09.128Z,2.63
2023-05-03T09:35:40.623Z,2.28
2023-05-03T09:38:11.547Z,2.65
2023-05-03T09:40:50.976Z,2.28
2023-05-03T09:43:21.266Z,2.63
2023-05-03T09:45:51.702Z,2.83
2023-05-03T09:48:25.630Z,2.38
2023-05-03T09:50:56.640Z,2.67
2023-05-03T09:53:27.713Z,2.67
2023-05-03T09:55:59.787Z,3.40
2023-05-03T09:58:31.151Z,2.80
2023-05-03T10:01:01.683Z,3.22
2023-05-03T10:03:41.145Z,2.80
2023-05-03T10:06:22.162Z,2.55
2023-05-03T10:08:57.385Z,2.80
2023-05-03T10:11:30.337Z,2.60
2023-05-03T10:14:01.526Z,2.43
2023-05-03T10:16:40.014Z,2.60
2023-05-03T10:19:17.561Z,2.72
2023-05-03T10:22:03.725Z,2.50
2023-05-03T10:24:34.153Z,2.25
2023-05-03T10:27:05.263Z,2.40
2023-05-03T10:29:54.295Z,2.92
2023-05-03T10:32:40.034Z,2.75
2023-05-03T10:35:17.293Z,2.60
2023-05-03T10:37:48.978Z,2.28
2023-05-03T10:40:22.545Z,2.90
2023-05-03T10:42:55.324Z,2.80
2023-05-03T10:45:28.520Z,2.95
2023-05-03T10:48:25.843Z,3.08
2023-05-03T10:50:59.920Z,3.50
2023-05-03T10:53:41.313Z,2.42
2023-05-03T10:56:13.147Z,3.33
2023-05-03T10:58:49.049Z,3.00
2023-05-03T11:01:21.669Z,2.80
2023-05-03T11:04:01.861Z,2.78
2023-05-03T11:06:41.562Z,3.08
2023-05-03T11:09:15.031Z,3.20
2023-05-03T11:11:46.369Z,2.50
2023-05-03T11:14:16.697Z,3.17
2023-05-03T11:16:51.978Z,3.13
2023-05-03T11:19:25.220Z,2.97
2023-05-03T11:21:58.335Z,2.92
2023-05-03T11:24:28.727Z,3.30
2023-05-03T11:26:58.992Z,3.45
2023-05-03T11:29:29.830Z,3.53
2023-05-03T11:32:00.308Z,3.08
2023-05-03T11:34:32.155Z,2.60
2023-05-03T11:37:06.101Z,2.90
2023-05-03T11:39:36.396Z,3.15
2023-05-03T11:42:08.639Z,3.00
2023-05-03T11:44:39.059Z,3.40
2023-05-03T11:47:09.839Z,2.70
2023-05-03T11:49:40.735Z,3.42
2023-05-03T11:52:13.820Z,3.70
2023-05-03T11:54:44.364Z,3.03
2023-05-03T11:57:16.600Z,3.22
2023-05-03T11:59:49.935Z,3.20
2023-05-03T12:02:20.375Z,3.17
2023-05-03T12:04:51.089Z,3.20
2023-05-03T12:07:25.938Z,3.10
2023-05-03T12:10:10.888Z,3.30
2023-05-03T12:12:57.109Z,3.20
2023-05-03T12:15:33.864Z,3.30
2023-05-03T12:18:05.777Z,2.60
2023-05-03T12:23:15.314Z,3.58
2023-05-03T12:25:49.163Z,3.70
2023-05-03T12:28:21.422Z,2.25
2023-05-03T12:30:53.415Z,3.55
2023-05-03T12:33:26.846Z,2.80
2023-05-03T12:36:04.288Z,3.92
2023-05-03T12:41:13.286Z,3.63
2023-05-03T12:43:46.311Z,3.05
2023-05-03T12:46:32.942Z,3.20
2023-05-03T12:49:07.692Z,3.63
2023-05-03T12:54:18.826Z,4.05
2023-05-03T13:07:03.418Z,3.70
2023-05-03T13:10:12.541Z,3.20
2023-05-03T13:12:31.099Z,3.75
2023-05-03T13:15:02.908Z,4.85
2023-05-03T13:17:34.672Z,3.78
2023-05-03T13:20:11.101Z,3.50
2023-05-03T13:22:41.631Z,3.70
2023-05-03T13:25:14.708Z,3.53
2023-05-03T13:27:46.980Z,3.70
2023-05-03T13:30:18.425Z,5.10
2023-05-03T13:32:48.781Z,3.85
2023-05-03T13:35:20.416Z,4.25
2023-05-03T13:37:51.291Z,3.63
2023-05-03T13:40:27.331Z,3.58
2023-05-03T13:42:57.565Z,3.17
2023-05-03T13:45:30.760Z,3.55
2023-05-03T13:48:17.546Z,3.50
2023-05-03T13:50:49.554Z,3.03
2023-05-03T13:53:19.914Z,3.70
2023-05-03T13:55:52.864Z,3.30
2023-05-03T13:58:23.312Z,3.40
2023-05-03T14:00:53.639Z,3.17
2023-05-03T14:03:27.736Z,3.30
2023-05-03T14:05:58.971Z,3.10
2023-05-03T14:08:30.444Z,3.33
2023-05-03T14:11:06.086Z,3.63
2023-05-03T14:13:51.567Z,3.40
2023-05-03T14:19:01.998Z,3.25
2023-05-03T14:21:34.786Z,2.85
2023-05-03T14:24:05.131Z,3.08
2023-05-03T14:26:38.126Z,3.40
2023-05-03T14:29:08.642Z,3.47
2023-05-03T14:31:38.998Z,3.10
2023-05-03T14:34:09.300Z,3.05
2023-05-03T14:36:43.954Z,3.05
2023-05-03T14:39:16.815Z,3.03
2023-05-03T14:41:51.317Z,3.78
2023-05-03T14:44:21.765Z,3.15
2023-05-03T14:46:53.407Z,3.00
2023-05-03T14:49:23.757Z,3.40
2023-05-03T14:51:54.239Z,3.30
2023-05-03T14:54:27.442Z,3.35
2023-05-03T14:57:00.314Z,3.28
2023-05-03T14:59:32.248Z,3.17
2023-05-03T15:02:02.770Z,2.60
2023-05-03T15:04:35.138Z,3.13
2023-05-03T15:07:07.528Z,3.42
2023-05-03T15:09:39.288Z,3.35
2023-05-03T15:12:12.853Z,2.60
2023-05-03T15:14:43.157Z,2.70
2023-05-03T15:17:13.511Z,2.85
2023-05-03T15:19:46.908Z,3.00
2023-05-03T15:22:17.643Z,3.03
2023-05-03T15:24:50.061Z,3.03
2023-05-03T15:27:23.203Z,2.90
2023-05-03T15:29:58.921Z,3.28
2023-05-03T15:32:34.224Z,2.85
2023-05-03T15:35:04.612Z,2.97
2023-05-03T15:37:38.920Z,2.88
2023-05-03T15:40:15.613Z,2.90
2023-05-03T15:42:48.553Z,2.55
2023-05-03T15:45:19.593Z,2.55
2023-05-03T15:47:56.662Z,3.00
2023-05-03T15:50:27.997Z,2.67
2023-05-03T15:52:59.105Z,2.63
2023-05-03T15:55:29.728Z,2.85
2023-05-03T15:58:03.544Z,2.70
2023-05-03T16:00:34.570Z,2.70
2023-05-03T16:03:04.901Z,2.42
2023-05-03T16:05:35.813Z,2.88
2023-05-03T16:08:08.541Z,2.45
2023-05-03T16:10:38.813Z,2.85
2023-05-03T16:13:12.322Z,2.85
2023-05-03T16:15:42.687Z,3.00
2023-05-03T16:18:13.509Z,3.30
2023-05-03T16:20:44.901Z,3.20
2023-05-03T16:23:15.848Z,3.00
2023-05-03T16:25:46.734Z,2.80
2023-05-03T16:28:19.748Z,2.72
2023-05-03T16:30:53.252Z,3.08
2023-05-03T16:33:23.989Z,2.63
2023-05-03T16:35:54.413Z,3.20
2023-05-03T16:38:30.600Z,2.63
2023-05-03T16:41:02.016Z,2.58
2023-05-03T16:43:35.351Z,2.40
2023-05-03T16:46:05.913Z,2.55
2023-05-03T16:48:36.703Z,2.72
2023-05-03T16:51:07.884Z,3.08
2023-05-03T16:53:41.723Z,2.95
2023-05-03T16:56:15.570Z,2.53
2023-05-03T16:58:50.076Z,3.08
2023-05-03T17:01:20.685Z,2.70
2023-05-03T17:03:51.992Z,2.83
2023-05-03T17:06:22.483Z,2.60
2023-05-03T17:08:52.803Z,2.80
2023-05-03T17:11:25.471Z,3.00
2023-05-03T17:14:01.031Z,3.60
2023-05-03T17:16:33.434Z,4.22
2023-05-03T17:19:03.856Z,4.88
2023-05-03T17:21:34.720Z,4.60
2023-05-03T17:24:05.293Z,4.38
2023-05-03T17:26:35.773Z,3.58
2023-05-03T17:29:09.191Z,3.00
2023-05-03T17:31:39.668Z,2.67
2023-05-03T17:34:10.059Z,3.00
2023-05-03T17:36:40.354Z,2.65
2023-05-03T17:39:10.857Z,2.97
2023-05-03T17:41:41.378Z,2.10
2023-05-03T17:44:14.614Z,2.35
2023-05-03T17:46:45.158Z,2.47
2023-05-03T17:49:17.611Z,2.45
2023-05-03T17:51:48.118Z,2.58
2023-05-03T17:54:18.409Z,2.55
2023-05-03T17:56:48.644Z,2.97
2023-05-03T17:59:21.582Z,2.50
2023-05-03T18:01:51.923Z,2.60
2023-05-03T18:04:22.958Z,2.92
2023-05-03T18:06:53.240Z,3.25
2023-05-03T18:09:26.444Z,3.33
2023-05-03T18:12:00.343Z,3.40
2023-05-03T18:17:05.712Z,3.97
2023-05-03T18:19:36.350Z,5.75
2023-05-03T18:22:06.744Z,7.75
2023-05-03T18:24:37.109Z,6.95
2023-05-03T18:27:10.648Z,5.47
2023-05-03T18:29:44.242Z,5.47
2023-05-03T18:32:16.649Z,7.40
2023-05-03T18:34:46.921Z,5.43
2023-05-03T18:37:17.232Z,4.57
2023-05-03T18:39:47.688Z,4.90
2023-05-03T18:42:19.854Z,5.15
2023-05-03T18:44:53.150Z,4.65
2023-05-03T18:47:23.658Z,3.55
2023-05-03T18:49:55.890Z,3.58
2023-05-03T18:52:26.708Z,4.40
2023-05-03T18:54:57.186Z,4.15
2023-05-03T18:57:27.571Z,3.30
2023-05-03T19:00:02.664Z,3.17
2023-05-03T19:02:34.268Z,3.22
2023-05-03T19:05:05.689Z,3.28
2023-05-03T19:07:37.450Z,2.70
2023-05-03T19:10:08.720Z,3.05
2023-05-03T19:12:43.160Z,3.22
2023-05-03T19:15:16.406Z,3.05
2023-05-03T19:17:47.660Z,2.65
2023-05-03T19:20:20.418Z,3.05
2023-05-03T19:22:50.812Z,3.05
2023-05-03T19:25:21.438Z,3.00
2023-05-03T19:27:51.780Z,3.03
2023-05-03T19:30:25.531Z,2.75
2023-05-03T19:32:55.935Z,3.23
2023-05-03T19:35:26.239Z,3.78
2023-05-03T19:37:56.605Z,3.33
2023-05-03T19:40:27.716Z,3.72
2023-05-03T19:42:58.163Z,3.15
2023-05-03T19:45:31.195Z,3.17
2023-05-03T19:48:02.001Z,2.92
2023-05-03T19:50:32.590Z,2.80
2023-05-03T19:53:02.850Z,2.90
2023-05-03T19:55:33.146Z,3.30
2023-05-03T19:58:03.626Z,3.15
2023-05-03T20:00:37.358Z,2.92
2023-05-03T20:03:07.936Z,3.10
2023-05-03T20:05:56.592Z,3.00
2023-05-03T20:08:27.564Z,2.90
2023-05-03T20:11:00.780Z,3.58
2023-05-03T20:13:31.165Z,3.28
2023-05-03T20:16:12.993Z,2.40
2023-05-03T20:18:43.338Z,3.08
2023-05-03T20:21:14.168Z,2.72
2023-05-03T20:23:44.467Z,2.90
2023-05-03T20:26:14.816Z,2.83
2023-05-03T20:28:45.158Z,3.10
2023-05-03T20:31:18.179Z,3.30
2023-05-03T20:33:48.497Z,3.73
2023-05-03T20:36:21.517Z,3.20
2023-05-03T20:38:52.024Z,2.80
2023-05-03T20:41:22.376Z,3.05
2023-05-03T20:43:55.228Z,3.42
2023-05-03T20:46:28.153Z,3.25
2023-05-03T20:48:58.880Z,3.70
2023-05-03T20:51:29.732Z,3.90
2023-05-03T20:54:00.001Z,4.10
2023-05-03T20:56:30.276Z,4.13
2023-05-03T20:59:00.622Z,3.72
2023-05-03T21:01:33.753Z,3.85
2023-05-03T21:04:04.375Z,3.60
2023-05-03T21:06:36.329Z,3.35
2023-05-03T21:09:07.133Z,3.40
2023-05-03T21:11:42.544Z,2.92
2023-05-03T21:14:14.739Z,2.90
2023-05-03T21:16:47.660Z,3.60
2023-05-03T21:19:18.018Z,3.30
2023-05-03T21:21:48.395Z,3.25
2023-05-03T21:24:18.588Z,3.67
2023-05-03T21:26:48.914Z,3.50
2023-05-03T21:29:19.537Z,3.70
2023-05-03T21:31:52.672Z,3.08
2023-05-03T21:34:23.010Z,3.30
2023-05-03T21:36:53.509Z,3.40
2023-05-03T21:39:30.983Z,3.85
2023-05-03T21:42:01.608Z,3.35
2023-05-03T21:44:32.012Z,3.70
2023-05-03T21:47:04.900Z,3.50
2023-05-03T21:49:35.206Z,3.78
2023-05-03T21:52:05.601Z,4.63
2023-05-03T21:54:35.825Z,4.25
2023-05-03T21:57:08.966Z,4.20
2023-05-03T21:59:39.391Z,3.90
2023-05-03T22:02:15.620Z,4.00
2023-05-03T22:04:46.264Z,4.18
2023-05-03T22:07:16.693Z,4.40
2023-05-03T22:09:49.816Z,3.58
2023-05-03T22:12:23.984Z,2.93
2023-05-03T22:14:57.856Z,2.47
2023-05-03T22:17:31.029Z,2.67
2023-05-03T22:22:34.118Z,2.40
2023-05-03T22:25:04.378Z,2.38
2023-05-03T22:27:36.912Z,2.35
2023-05-03T22:30:11.412Z,2.20
2023-05-03T22:32:45.102Z,2.20
2023-05-03T22:35:15.430Z,2.40
2023-05-03T22:37:45.846Z,1.92
2023-05-03T22:40:19.947Z,1.92
2023-05-03T22:42:50.126Z,1.92
2023-05-03T22:45:20.888Z,2.03
2023-05-03T22:47:53.823Z,2.00
2023-05-03T22:50:25.661Z,2.10
2023-05-03T22:52:55.932Z,1.83
2023-05-03T22:55:26.533Z,1.90
2023-05-03T22:57:59.761Z,2.17
2023-05-03T23:00:30.342Z,2.50
2023-05-03T23:03:03.232Z,2.05
2023-05-03T23:05:33.534Z,2.08
2023-05-03T23:08:03.741Z,2.10
2023-05-03T23:10:40.028Z,1.63
2023-05-03T23:13:10.727Z,2.13
2023-05-03T23:15:41.809Z,2.38
2023-05-03T23:18:14.651Z,1.90
2023-05-03T23:20:47.831Z,2.25
2023-05-03T23:23:18.389Z,2.22
2023-05-03T23:25:48.728Z,2.03
2023-05-03T23:28:19.028Z,2.22
2023-05-03T23:30:51.187Z,2.28
2023-05-03T23:33:24.617Z,2.17
2023-05-03T23:35:55.557Z,2.03
2023-05-03T23:38:25.934Z,2.10
2023-05-03T23:40:56.540Z,2.13
2023-05-03T23:43:27.324Z,2.00
2023-05-03T23:45:57.683Z,1.90
2023-05-03T23:48:31.769Z,1.90
2023-05-03T23:51:02.791Z,2.10
2023-05-03T23:53:36.565Z,2.05
2023-05-03T23:56:09.566Z,2.30
2023-05-03T23:58:39.771Z,2.05
